Dillon Beach, CA (94929)

8:16 AM PST on December 07, 2016 (GMT -0800)
East of Tomales | | Change Station

Elev 131 ft 38.25 °N, 122.88 °W | Updated 25 seconds ago

Partly Cloudy
Partly Cloudy
38.3 °F
Feels Like 38 °F
N
0.9
Wind Variable Wind from North
Gusts 2.5 mph

Today
High -- | Low -- °F
--% Chance of Precip.
Yesterday
High -- | Low -- °F
Precip. -- in
Pressure 30.19 in
Visibility 10.0 miles
Clouds Few 12000 ft
Windchill 38 °F
Dew Point 34 °F
Humidity 83%
Rainfall 0.00 in
Snow Depth Not available.
7:15 AM 4:51 PM
First Quarter, 53% visible
METAR KO69 071555Z AUTO 00000KT 10SM FEW120 00/00 A3019 RMK AO1
Pressure 30.19 in
Visibility 10.0 miles
Clouds Few 12000 ft
Windchill 38 °F
Dew Point 34 °F
Humidity 83%
Rainfall 0.00 in
Snow Depth Not available.
7:15 AM 4:51 PM
First Quarter, 53% visible
METAR KO69 071555Z AUTO 00000KT 10SM FEW120 00/00 A3019 RMK AO1

10-Day Weather Forecast

Almanac

Astronomy

Dec. 07, 2016 Rise Set
Actual Time
Civil Twilight
Nautical Twilight
Astronomical Twilight
Moon
Length of Visible Light
Length of Day
Tomorrow will be .
, % of the Moon is Illuminated

Today's Extremes

State Highs State Lows

Community

WunderPhotos

Upload Photos

1,956,132 photos uploaded!

WunderBlog® & News

Nearby

Air Quality

  Air Quality AQ Index Pollutant
Not available.

Snow Depth

Station Depth Elevation

Earthquake Activity

City Distance Mag. Time & Date
Minimum magnitude displayed is 2.5.

Coastal Water Temperatures

Place Temperature

Stations

Nearby Weather Stations

Station Location Temp. Windchill Dew Point Humidity Wind Precip. Elev Updated Type
                   

Watches & Warnings

There are currently no watches in effect.